createdAt,value
2023-01-25T00:00:01.877Z,21.90
2023-01-25T00:01:01.865Z,22.00
2023-01-25T00:02:01.916Z,23.50
2023-01-25T00:03:01.862Z,22.30
2023-01-25T00:04:01.829Z,22.00
2023-01-25T00:05:01.822Z,22.70
2023-01-25T00:06:01.874Z,23.20
2023-01-25T00:07:01.814Z,21.50
2023-01-25T00:08:01.785Z,23.20
2023-01-25T00:09:01.791Z,23.60
2023-01-25T00:10:01.801Z,20.70
2023-01-25T00:11:01.764Z,22.60
2023-01-25T00:12:01.751Z,21.00
2023-01-25T00:13:01.741Z,22.20
2023-01-25T00:14:01.719Z,22.50
2023-01-25T00:15:01.727Z,22.30
2023-01-25T00:16:01.714Z,21.60
2023-01-25T00:17:01.705Z,21.50
2023-01-25T00:18:01.683Z,21.80
2023-01-25T00:19:01.675Z,22.20
2023-01-25T00:20:01.655Z,24.10
2023-01-25T00:21:01.654Z,23.10
2023-01-25T00:22:01.680Z,21.80
2023-01-25T00:23:01.636Z,22.80
2023-01-25T00:24:01.664Z,22.10
2023-01-25T00:25:01.699Z,23.60
2023-01-25T00:26:01.592Z,22.80
2023-01-25T00:27:01.597Z,22.80
2023-01-25T00:28:01.577Z,22.90
2023-01-25T00:29:01.564Z,23.10
2023-01-25T00:30:01.571Z,21.20
2023-01-25T00:31:01.541Z,23.40
2023-01-25T00:32:01.752Z,22.50
2023-01-25T00:33:01.520Z,21.00
2023-01-25T00:34:01.507Z,23.90
2023-01-25T00:35:01.539Z,24.70
2023-01-25T00:36:01.490Z,23.30
2023-01-25T00:37:01.493Z,23.80
2023-01-25T00:38:01.462Z,22.60
2023-01-25T00:39:01.476Z,22.10
2023-01-25T00:40:01.441Z,23.40
2023-01-25T00:41:01.439Z,23.70
2023-01-25T00:42:01.446Z,24.70
2023-01-25T00:43:01.425Z,23.50
2023-01-25T00:44:01.484Z,24.60
2023-01-25T00:45:01.390Z,24.30
2023-01-25T00:46:01.422Z,24.50
2023-01-25T00:47:01.407Z,24.40
2023-01-25T00:48:01.371Z,23.50
2023-01-25T00:49:01.346Z,23.90
2023-01-25T00:50:01.333Z,25.40
2023-01-25T00:51:01.328Z,24.60
2023-01-25T00:52:01.345Z,25.40
2023-01-25T00:53:01.313Z,26.10
2023-01-25T00:54:01.289Z,26.60
2023-01-25T00:55:01.278Z,25.00
2023-01-25T00:56:01.267Z,25.00
2023-01-25T00:57:01.259Z,24.20
2023-01-25T00:58:01.256Z,25.00
2023-01-25T00:59:01.240Z,24.70
2023-01-25T01:00:01.225Z,22.70
2023-01-25T01:01:01.262Z,23.50
2023-01-25T01:02:01.204Z,21.50
2023-01-25T01:03:01.199Z,23.80
2023-01-25T01:04:01.184Z,23.80
2023-01-25T01:05:01.238Z,25.20
2023-01-25T01:06:01.173Z,26.00
2023-01-25T01:07:01.147Z,24.90
2023-01-25T01:08:01.150Z,25.30
2023-01-25T01:09:01.131Z,23.70
2023-01-25T01:10:01.123Z,25.00
2023-01-25T01:11:01.133Z,25.70
2023-01-25T01:12:01.118Z,25.60
2023-01-25T01:13:01.086Z,25.10
2023-01-25T01:14:01.108Z,23.50
2023-01-25T01:15:01.060Z,22.60
2023-01-25T01:16:01.057Z,24.60
2023-01-25T01:17:01.115Z,24.70
2023-01-25T01:18:01.050Z,24.40
2023-01-25T01:19:01.017Z,24.20
2023-01-25T01:20:01.014Z,23.70
2023-01-25T01:21:01.007Z,23.20
2023-01-25T01:22:00.989Z,23.80
2023-01-25T01:23:00.986Z,23.00
2023-01-25T01:24:01.038Z,22.70
2023-01-25T01:25:00.962Z,22.60
2023-01-25T01:26:00.948Z,25.80
2023-01-25T01:27:00.939Z,22.70
2023-01-25T01:28:00.937Z,24.30
2023-01-25T01:29:00.910Z,23.70
2023-01-25T01:30:00.914Z,24.40
2023-01-25T01:31:00.888Z,24.80
2023-01-25T01:32:01.019Z,24.70
2023-01-25T01:33:00.876Z,25.90
2023-01-25T01:34:00.860Z,25.80
2023-01-25T01:35:00.852Z,23.40
2023-01-25T01:36:00.847Z,25.30
2023-01-25T01:37:00.823Z,24.80
2023-01-25T01:38:00.831Z,25.30
2023-01-25T01:39:00.806Z,24.60
2023-01-25T01:40:00.802Z,25.60
2023-01-25T01:41:00.801Z,24.90
2023-01-25T01:42:00.780Z,26.30
2023-01-25T01:43:00.769Z,24.20
2023-01-25T01:44:00.761Z,25.90
2023-01-25T01:45:00.736Z,26.10
2023-01-25T01:46:00.769Z,25.90
2023-01-25T01:47:00.720Z,25.40
2023-01-25T01:48:00.716Z,26.00
2023-01-25T01:49:00.729Z,26.90
2023-01-25T01:50:00.689Z,25.30
2023-01-25T01:51:00.687Z,25.10
2023-01-25T01:52:00.705Z,26.10
2023-01-25T01:53:00.661Z,26.60
2023-01-25T01:54:00.641Z,25.00
2023-01-25T01:55:00.636Z,26.10
2023-01-25T01:56:00.619Z,25.00
2023-01-25T01:57:00.603Z,26.40
2023-01-25T01:58:00.610Z,25.70
2023-01-25T01:59:00.585Z,27.20
2023-01-25T02:00:00.575Z,25.20
2023-01-25T02:01:00.633Z,26.70
2023-01-25T02:02:00.569Z,26.20
2023-01-25T02:03:00.612Z,27.90
2023-01-25T02:04:00.546Z,24.90
2023-01-25T02:05:00.538Z,25.10
2023-01-25T02:06:00.510Z,27.90
2023-01-25T02:07:00.497Z,25.50
2023-01-25T02:08:00.499Z,26.20
2023-01-25T02:09:00.474Z,25.90
2023-01-25T02:10:00.467Z,26.80
2023-01-25T02:11:00.454Z,23.80
2023-01-25T02:12:00.449Z,26.00
2023-01-25T02:13:00.473Z,26.10
2023-01-25T02:14:00.425Z,27.40
2023-01-25T02:15:00.428Z,26.70
2023-01-25T02:16:00.501Z,25.50
2023-01-25T02:17:00.393Z,26.60
2023-01-25T02:18:00.388Z,25.70
2023-01-25T02:19:00.370Z,26.40
2023-01-25T02:20:00.354Z,24.90
2023-01-25T02:21:00.354Z,25.80
2023-01-25T02:22:00.337Z,25.90
2023-01-25T02:23:00.337Z,24.90
2023-01-25T02:24:00.334Z,26.50
2023-01-25T02:25:00.308Z,25.40
2023-01-25T02:26:00.413Z,27.50
2023-01-25T02:27:00.282Z,27.00
2023-01-25T02:28:00.295Z,26.70
2023-01-25T02:29:00.262Z,26.60
2023-01-25T02:30:00.263Z,24.60
2023-01-25T02:31:00.320Z,26.10
2023-01-25T02:32:00.269Z,29.20
2023-01-25T02:33:00.233Z,25.10
2023-01-25T02:34:00.204Z,25.10
2023-01-25T02:35:00.233Z,27.10
2023-01-25T02:36:00.183Z,25.20
2023-01-25T02:37:00.180Z,25.40
2023-01-25T02:38:00.169Z,26.10
2023-01-25T02:39:00.154Z,24.80
2023-01-25T02:40:00.162Z,25.90
2023-01-25T02:41:00.132Z,26.10
2023-01-25T02:42:00.129Z,26.80
2023-01-25T02:43:00.129Z,27.20
2023-01-25T02:44:00.134Z,26.20
2023-01-25T02:45:00.101Z,25.70
2023-01-25T02:46:00.118Z,25.30
2023-01-25T02:47:00.078Z,27.10
2023-01-25T02:48:00.073Z,27.30
2023-01-25T02:49:00.058Z,25.20
2023-01-25T02:50:00.034Z,28.00
2023-01-25T02:51:00.030Z,26.90
2023-01-25T02:52:00.035Z,25.00
2023-01-25T02:53:00.014Z,26.20
2023-01-25T02:53:59.988Z,27.10
2023-01-25T02:54:59.991Z,25.80
2023-01-25T02:55:59.968Z,26.70
2023-01-25T02:56:59.965Z,27.40
2023-01-25T02:57:59.959Z,27.30
2023-01-25T02:58:59.939Z,28.00
2023-01-25T02:59:59.930Z,28.00
2023-01-25T03:00:59.918Z,27.10
2023-01-25T03:01:59.906Z,27.00
2023-01-25T03:02:59.942Z,26.40
2023-01-25T03:03:59.882Z,28.30
2023-01-25T03:04:59.883Z,28.30
2023-01-25T03:05:59.862Z,27.10
2023-01-25T03:06:59.854Z,27.80
2023-01-25T03:07:59.927Z,28.10
2023-01-25T03:08:59.830Z,27.10
2023-01-25T03:09:59.898Z,29.40
2023-01-25T03:10:59.843Z,27.10
2023-01-25T03:11:59.796Z,25.70
2023-01-25T03:12:59.802Z,27.90
2023-01-25T03:13:59.771Z,28.50
2023-01-25T03:14:59.793Z,25.80
2023-01-25T03:16:00.295Z,28.80
2023-01-25T03:16:59.742Z,27.20
2023-01-25T03:17:59.739Z,28.30
2023-01-25T03:18:59.732Z,29.80
2023-01-25T03:19:59.706Z,26.70
2023-01-25T03:20:59.704Z,29.20
2023-01-25T03:21:59.684Z,26.50
2023-01-25T03:22:59.688Z,27.50
2023-01-25T03:23:59.788Z,25.60
2023-01-25T03:24:59.727Z,24.20
2023-01-25T03:25:59.643Z,25.90
2023-01-25T03:26:59.649Z,28.30
2023-01-25T03:27:59.648Z,26.20
2023-01-25T03:28:59.689Z,27.10
2023-01-25T03:29:59.598Z,26.00
2023-01-25T03:30:59.669Z,28.40
2023-01-25T03:31:59.717Z,27.30
2023-01-25T03:32:59.587Z,28.70
2023-01-25T03:33:59.567Z,28.30
2023-01-25T03:34:59.551Z,29.30
2023-01-25T03:35:59.570Z,27.50
2023-01-25T03:36:59.565Z,26.60
2023-01-25T03:37:59.527Z,26.40
2023-01-25T03:38:59.507Z,24.40
2023-01-25T03:39:59.493Z,26.60
2023-01-25T03:40:59.486Z,25.00
2023-01-25T03:41:59.478Z,26.40
2023-01-25T03:42:59.484Z,27.10
2023-01-25T03:43:59.447Z,28.00
2023-01-25T03:44:59.443Z,27.20
2023-01-25T03:45:59.426Z,27.70
2023-01-25T03:46:59.483Z,26.80
2023-01-25T03:47:59.407Z,27.40
2023-01-25T03:48:59.411Z,26.10
2023-01-25T03:49:59.383Z,27.60
2023-01-25T03:50:59.376Z,31.50
2023-01-25T03:51:59.360Z,29.00
2023-01-25T03:52:59.363Z,30.50
2023-01-25T03:53:59.349Z,28.10
2023-01-25T03:54:59.339Z,26.30
2023-01-25T03:55:59.317Z,27.70
2023-01-25T03:56:59.313Z,29.90
2023-01-25T03:57:59.304Z,28.60
2023-01-25T03:58:59.303Z,30.10
2023-01-25T03:59:59.273Z,29.20
2023-01-25T04:00:59.341Z,30.40
2023-01-25T04:01:59.327Z,29.70
2023-01-25T04:02:59.244Z,28.60
2023-01-25T04:03:59.248Z,27.40
2023-01-25T04:04:59.221Z,28.60
2023-01-25T04:05:59.216Z,28.60
2023-01-25T04:06:59.201Z,29.00
2023-01-25T04:07:59.396Z,29.50
2023-01-25T04:08:59.194Z,31.60
2023-01-25T04:09:59.179Z,28.50
2023-01-25T04:10:59.158Z,30.00
2023-01-25T04:11:59.150Z,28.60
2023-01-25T04:12:59.135Z,29.80
2023-01-25T04:13:59.135Z,30.30
2023-01-25T04:14:59.116Z,28.40
2023-01-25T04:15:59.188Z,30.90
2023-01-25T04:16:59.090Z,29.40
2023-01-25T04:17:59.092Z,30.30
2023-01-25T04:18:59.079Z,29.00
2023-01-25T04:19:59.066Z,28.00
2023-01-25T04:20:59.141Z,29.40
2023-01-25T04:21:59.038Z,29.10
2023-01-25T04:22:59.031Z,28.60
2023-01-25T04:23:59.109Z,28.10
2023-01-25T04:24:59.009Z,27.50
2023-01-25T04:25:59.023Z,27.50
2023-01-25T04:26:58.984Z,26.50
2023-01-25T04:27:58.978Z,27.80
2023-01-25T04:28:58.978Z,28.40
2023-01-25T04:29:58.968Z,28.50
2023-01-25T04:30:58.943Z,25.10
2023-01-25T04:31:59.219Z,28.20
2023-01-25T04:32:58.917Z,27.30
2023-01-25T04:33:58.925Z,25.30
2023-01-25T04:34:58.900Z,27.20
2023-01-25T04:35:58.895Z,25.50
2023-01-25T04:36:58.883Z,27.80
2023-01-25T04:37:58.868Z,28.70
2023-01-25T04:38:58.865Z,28.20
2023-01-25T04:39:58.858Z,29.10
2023-01-25T04:40:58.836Z,26.60
2023-01-25T04:41:58.825Z,27.90
2023-01-25T04:42:58.822Z,28.40
2023-01-25T04:43:58.825Z,27.60
2023-01-25T04:44:58.788Z,27.80
2023-01-25T04:45:58.816Z,25.80
2023-01-25T04:46:58.776Z,29.30
2023-01-25T04:47:58.763Z,27.10
2023-01-25T04:48:58.758Z,26.80
2023-01-25T04:49:58.746Z,26.50
2023-01-25T04:50:58.730Z,27.00
2023-01-25T04:51:58.718Z,28.20
2023-01-25T04:52:58.702Z,27.20
2023-01-25T04:53:58.710Z,27.50
2023-01-25T04:54:58.681Z,26.70
2023-01-25T04:55:58.680Z,26.40
2023-01-25T04:56:58.660Z,27.60
2023-01-25T04:57:58.656Z,28.30
2023-01-25T04:58:58.678Z,27.70
2023-01-25T04:59:58.637Z,27.60
2023-01-25T05:00:58.641Z,26.60
2023-01-25T05:01:58.646Z,28.20
2023-01-25T05:02:58.598Z,27.50
2023-01-25T05:03:58.603Z,25.70
2023-01-25T05:04:58.583Z,26.60
2023-01-25T05:05:58.589Z,26.60
2023-01-25T05:06:58.557Z,27.50
2023-01-25T05:07:58.550Z,28.80
2023-01-25T05:08:58.543Z,27.90
2023-01-25T05:09:58.524Z,26.10
2023-01-25T05:10:58.511Z,27.30
2023-01-25T05:11:58.503Z,27.60
2023-01-25T05:12:58.486Z,27.60
2023-01-25T05:13:58.490Z,28.00
2023-01-25T05:14:58.467Z,27.40
2023-01-25T05:15:58.463Z,27.30
2023-01-25T05:16:58.489Z,27.30
2023-01-25T05:17:58.438Z,24.80
2023-01-25T05:18:58.474Z,26.70
2023-01-25T05:19:58.415Z,24.80
2023-01-25T05:20:58.406Z,27.60
2023-01-25T05:21:58.392Z,26.30
2023-01-25T05:22:58.375Z,29.40
2023-01-25T05:23:58.429Z,26.40
2023-01-25T05:24:58.361Z,26.20
2023-01-25T05:25:58.349Z,28.40
2023-01-25T05:26:58.335Z,26.10
2023-01-25T05:27:58.332Z,28.70
2023-01-25T05:28:58.329Z,27.10
2023-01-25T05:29:58.334Z,27.80
2023-01-25T05:30:58.364Z,27.80
2023-01-25T05:31:58.385Z,28.00
2023-01-25T05:32:58.273Z,27.30
2023-01-25T05:33:58.274Z,26.60
2023-01-25T05:34:59.991Z,27.30
2023-01-25T05:35:58.241Z,25.40
2023-01-25T05:36:59.032Z,26.10
2023-01-25T05:37:58.219Z,26.60
2023-01-25T05:38:58.215Z,27.40
2023-01-25T05:39:58.220Z,26.40
2023-01-25T05:40:58.208Z,27.40
2023-01-25T05:41:58.190Z,28.40
2023-01-25T05:42:58.199Z,26.90
2023-01-25T05:43:58.156Z,26.40
2023-01-25T05:44:58.158Z,29.10
2023-01-25T05:45:58.209Z,27.10
2023-01-25T05:46:58.120Z,27.00
2023-01-25T05:47:58.132Z,29.20
2023-01-25T05:48:58.105Z,28.20
2023-01-25T05:49:58.108Z,26.50
2023-01-25T05:50:58.078Z,26.70
2023-01-25T05:51:58.069Z,26.60
2023-01-25T05:52:58.059Z,26.50
2023-01-25T05:53:58.051Z,27.30
2023-01-25T05:54:58.057Z,26.90
2023-01-25T05:55:58.029Z,27.00
2023-01-25T05:56:58.017Z,27.20
2023-01-25T05:57:58.001Z,27.90
2023-01-25T05:58:58.007Z,26.30
2023-01-25T05:59:57.992Z,27.20
2023-01-25T06:00:58.040Z,26.10
2023-01-25T06:01:58.913Z,28.10
2023-01-25T06:02:58.052Z,28.30
2023-01-25T06:03:57.940Z,29.00
2023-01-25T06:04:57.933Z,27.30
2023-01-25T06:05:57.918Z,29.80
2023-01-25T06:06:57.912Z,29.00
2023-01-25T06:07:57.897Z,31.20
2023-01-25T06:08:57.886Z,28.50
2023-01-25T06:09:57.887Z,27.40
2023-01-25T06:10:57.865Z,28.60
2023-01-25T06:11:57.878Z,30.90
2023-01-25T06:12:57.837Z,27.40
2023-01-25T06:13:57.831Z,29.90
2023-01-25T06:14:57.824Z,30.00
2023-01-25T06:15:57.908Z,28.20
2023-01-25T06:16:57.793Z,32.70
2023-01-25T06:17:57.796Z,32.00
2023-01-25T06:18:57.773Z,30.50
2023-01-25T06:19:57.781Z,31.40
2023-01-25T06:20:57.757Z,33.50
2023-01-25T06:21:57.780Z,27.80
2023-01-25T06:22:57.729Z,31.10
2023-01-25T06:23:57.724Z,27.70
2023-01-25T06:24:57.737Z,29.30
2023-01-25T06:25:57.705Z,29.60
2023-01-25T06:26:57.687Z,30.70
2023-01-25T06:27:57.684Z,28.80
2023-01-25T06:28:57.718Z,29.40
2023-01-25T06:29:57.669Z,31.10
2023-01-25T06:30:57.761Z,29.30
2023-01-25T06:31:57.649Z,27.70
2023-01-25T06:32:57.622Z,27.80
2023-01-25T06:33:58.852Z,30.30
2023-01-25T06:34:57.613Z,29.40
2023-01-25T06:35:57.598Z,28.60
2023-01-25T06:36:57.585Z,28.80
2023-01-25T06:37:57.567Z,28.80
2023-01-25T06:38:57.561Z,29.90
2023-01-25T06:39:57.569Z,30.00
2023-01-25T06:40:57.541Z,30.70
2023-01-25T06:41:57.552Z,31.10
2023-01-25T06:42:57.515Z,30.50
2023-01-25T06:43:57.525Z,30.00
2023-01-25T06:44:57.503Z,30.50
2023-01-25T06:45:57.489Z,30.80
2023-01-25T06:46:57.601Z,32.40
2023-01-25T06:47:57.461Z,28.30
2023-01-25T06:48:57.457Z,30.80
2023-01-25T06:49:57.446Z,29.80
2023-01-25T06:50:57.436Z,27.10
2023-01-25T06:51:57.418Z,27.60
2023-01-25T06:52:57.421Z,30.40
2023-01-25T06:53:57.406Z,29.30
2023-01-25T06:54:57.395Z,29.80
2023-01-25T06:55:57.371Z,29.30
2023-01-25T06:56:57.370Z,30.60
2023-01-25T06:57:57.351Z,30.10
2023-01-25T06:58:57.352Z,30.80
2023-01-25T06:59:57.351Z,30.60
2023-01-25T07:00:57.322Z,30.50
2023-01-25T07:01:57.378Z,30.20
2023-01-25T07:02:57.308Z,27.60
2023-01-25T07:03:57.299Z,30.00
2023-01-25T07:04:57.285Z,28.40
2023-01-25T07:05:57.270Z,31.20
2023-01-25T07:06:57.254Z,30.30
2023-01-25T07:07:57.247Z,32.90
2023-01-25T07:08:57.233Z,30.30
2023-01-25T07:09:57.239Z,29.80
2023-01-25T07:10:57.232Z,31.30
2023-01-25T07:11:57.209Z,32.10
2023-01-25T07:12:57.196Z,30.90
2023-01-25T07:13:57.183Z,31.40
2023-01-25T07:14:57.182Z,30.20
2023-01-25T07:15:57.163Z,31.50
2023-01-25T07:16:57.159Z,30.80
2023-01-25T07:18:03.168Z,33.20
2023-01-25T07:18:57.130Z,34.00
2023-01-25T07:19:57.129Z,28.80
2023-01-25T07:20:57.102Z,30.60
2023-01-25T07:21:57.118Z,32.70
2023-01-25T07:22:57.082Z,29.90
2023-01-25T07:23:57.099Z,33.90
2023-01-25T07:24:57.119Z,34.90
2023-01-25T07:25:57.060Z,31.40
2023-01-25T07:26:57.055Z,30.70
2023-01-25T07:27:57.032Z,33.00
2023-01-25T07:28:57.015Z,32.60
2023-01-25T07:29:57.019Z,32.30
2023-01-25T07:30:57.018Z,32.10
2023-01-25T07:31:57.086Z,34.30
2023-01-25T07:32:56.979Z,33.20
2023-01-25T07:33:56.967Z,31.00
2023-01-25T07:34:56.962Z,30.40
2023-01-25T07:35:56.946Z,29.50
2023-01-25T07:36:56.928Z,32.00
2023-01-25T07:37:56.927Z,33.10
2023-01-25T07:38:56.923Z,33.30
2023-01-25T07:39:56.913Z,31.70
2023-01-25T07:40:56.886Z,34.00
2023-01-25T07:41:56.882Z,33.30
2023-01-25T07:42:56.874Z,30.20
2023-01-25T07:43:56.858Z,31.40
2023-01-25T07:44:56.854Z,30.00
2023-01-25T07:45:56.835Z,31.00
2023-01-25T07:46:56.827Z,32.20
2023-01-25T07:47:56.817Z,30.20
2023-01-25T07:48:56.814Z,32.30
2023-01-25T07:49:56.805Z,30.90
2023-01-25T07:50:56.798Z,32.50
2023-01-25T07:51:56.820Z,31.40
2023-01-25T07:52:56.761Z,30.40
2023-01-25T07:53:56.753Z,30.30
2023-01-25T07:54:56.744Z,32.20
2023-01-25T07:55:56.731Z,32.40
2023-01-25T07:56:56.713Z,33.20
2023-01-25T07:57:56.712Z,28.50
2023-01-25T07:58:56.741Z,32.70
2023-01-25T07:59:56.694Z,31.90
2023-01-25T08:00:56.673Z,29.70
2023-01-25T08:01:56.667Z,31.40
2023-01-25T08:02:56.650Z,30.10
2023-01-25T08:03:56.649Z,32.00
2023-01-25T08:04:56.638Z,30.90
2023-01-25T08:05:56.619Z,31.20
2023-01-25T08:06:56.612Z,31.40
2023-01-25T08:07:56.598Z,30.80
2023-01-25T08:08:56.596Z,31.30
2023-01-25T08:09:56.610Z,34.40
2023-01-25T08:10:56.563Z,31.40
2023-01-25T08:11:56.556Z,31.10
2023-01-25T08:12:56.558Z,31.40
2023-01-25T08:13:56.562Z,32.90
2023-01-25T08:14:56.522Z,31.90
2023-01-25T08:15:56.523Z,34.00
2023-01-25T08:16:56.503Z,31.00
2023-01-25T08:17:56.491Z,29.50
2023-01-25T08:18:56.481Z,31.00
2023-01-25T08:19:56.473Z,30.90
2023-01-25T08:20:56.487Z,32.30
2023-01-25T08:21:56.450Z,32.90
2023-01-25T08:22:56.442Z,32.30
2023-01-25T08:23:56.470Z,31.30
2023-01-25T08:24:56.419Z,30.30
2023-01-25T08:25:56.419Z,30.00
2023-01-25T08:26:56.394Z,29.30
2023-01-25T08:27:56.399Z,32.70
2023-01-25T08:28:56.382Z,32.40
2023-01-25T08:29:56.365Z,31.30
2023-01-25T08:31:18.607Z,30.50
2023-01-25T08:31:56.364Z,32.00
2023-01-25T08:32:56.332Z,31.80
2023-01-25T08:33:56.319Z,31.50
2023-01-25T08:34:56.308Z,34.00
2023-01-25T08:35:56.308Z,32.80
2023-01-25T08:36:56.296Z,33.50
2023-01-25T08:37:56.281Z,31.90
2023-01-25T08:38:56.309Z,34.50
2023-01-25T08:39:56.251Z,33.10
2023-01-25T08:40:56.251Z,34.00
2023-01-25T08:41:56.232Z,31.00
2023-01-25T08:42:56.227Z,35.10
2023-01-25T08:43:56.208Z,32.40
2023-01-25T08:44:56.195Z,32.70
2023-01-25T08:45:56.207Z,33.40
2023-01-25T08:46:56.174Z,31.10
2023-01-25T08:47:56.168Z,32.40
2023-01-25T08:48:56.155Z,32.10
2023-01-25T08:49:56.150Z,33.00
2023-01-25T08:50:56.153Z,33.10
2023-01-25T08:51:56.135Z,32.50
2023-01-25T08:52:56.111Z,33.50
2023-01-25T08:53:56.114Z,32.40
2023-01-25T08:54:56.113Z,34.20
2023-01-25T08:55:56.109Z,32.50
2023-01-25T08:56:56.067Z,31.80
2023-01-25T08:57:56.711Z,31.20
2023-01-25T08:58:56.058Z,35.30
2023-01-25T08:59:56.042Z,33.10
2023-01-25T09:00:56.041Z,35.20
2023-01-25T09:01:56.024Z,33.10
2023-01-25T09:02:56.010Z,34.50
2023-01-25T09:03:56.048Z,33.40
2023-01-25T09:04:55.982Z,33.80
2023-01-25T09:05:55.983Z,31.60
2023-01-25T09:06:55.983Z,36.90
2023-01-25T09:07:55.954Z,30.00
2023-01-25T09:08:55.937Z,32.90
2023-01-25T09:09:55.928Z,32.20
2023-01-25T09:10:55.926Z,32.90
2023-01-25T09:11:55.938Z,31.40
2023-01-25T09:12:55.919Z,32.00
2023-01-25T09:13:55.885Z,32.80
2023-01-25T09:14:55.873Z,34.90
2023-01-25T09:15:55.877Z,30.60
2023-01-25T09:16:55.855Z,32.40
2023-01-25T09:17:55.847Z,32.90
2023-01-25T09:18:55.835Z,32.40
2023-01-25T09:19:55.828Z,31.90
2023-01-25T09:20:55.824Z,33.50
2023-01-25T09:21:55.803Z,32.90
2023-01-25T09:22:55.793Z,32.50
2023-01-25T09:24:11.263Z,35.60
2023-01-25T09:24:55.770Z,34.60
2023-01-25T09:25:55.770Z,34.20
2023-01-25T09:26:59.720Z,36.40
2023-01-25T09:27:55.741Z,34.10
2023-01-25T09:28:55.730Z,33.90
2023-01-25T09:30:01.693Z,33.80
2023-01-25T09:31:14.553Z,32.80
2023-01-25T09:31:55.783Z,32.20
2023-01-25T09:32:55.735Z,35.10
2023-01-25T09:33:55.679Z,32.80
2023-01-25T09:34:55.657Z,32.80
2023-01-25T09:35:55.665Z,35.20
2023-01-25T09:36:55.634Z,35.00
2023-01-25T09:37:55.628Z,34.00
2023-01-25T09:38:55.628Z,35.70
2023-01-25T09:39:55.617Z,34.20
2023-01-25T09:40:55.611Z,34.80
2023-01-25T09:41:58.184Z,35.10
2023-01-25T09:42:55.570Z,33.10
2023-01-25T09:43:56.799Z,35.70
2023-01-25T09:44:55.548Z,35.30
2023-01-25T09:45:55.572Z,35.50
2023-01-25T09:46:55.527Z,34.10
2023-01-25T09:47:55.528Z,36.40
2023-01-25T09:49:06.751Z,37.00
2023-01-25T09:49:55.505Z,38.10
2023-01-25T09:50:55.495Z,34.80
2023-01-25T09:51:55.501Z,39.40
2023-01-25T09:52:55.462Z,36.10
2023-01-25T09:53:55.456Z,35.00
2023-01-25T09:54:55.443Z,36.90
2023-01-25T09:55:55.439Z,37.40
2023-01-25T09:56:55.426Z,41.20
2023-01-25T09:57:55.415Z,41.00
2023-01-25T09:58:55.398Z,42.20
2023-01-25T09:59:55.405Z,37.80
2023-01-25T10:00:55.382Z,40.30
2023-01-25T10:01:55.462Z,37.60
2023-01-25T10:02:55.382Z,40.10
2023-01-25T10:03:55.343Z,38.40
2023-01-25T10:04:55.336Z,38.30
2023-01-25T10:05:55.320Z,38.30
2023-01-25T10:07:00.983Z,38.20
2023-01-25T10:07:55.311Z,38.20
2023-01-25T10:08:55.298Z,37.10
2023-01-25T10:09:55.405Z,36.50
2023-01-25T10:10:55.272Z,38.40
2023-01-25T10:11:55.310Z,37.40
2023-01-25T10:12:55.251Z,36.60
2023-01-25T10:13:55.243Z,35.50
2023-01-25T10:14:55.235Z,37.00
2023-01-25T10:15:55.256Z,40.00
2023-01-25T10:16:55.332Z,40.20
2023-01-25T10:17:55.194Z,36.80
2023-01-25T10:18:55.193Z,39.30
2023-01-25T10:19:55.176Z,37.30
2023-01-25T10:20:55.165Z,38.60
2023-01-25T10:21:55.158Z,37.40
2023-01-25T10:22:55.145Z,38.70
2023-01-25T10:23:55.163Z,38.30
2023-01-25T10:24:55.123Z,38.50
2023-01-25T10:25:55.106Z,35.80
2023-01-25T10:26:55.112Z,35.80
2023-01-25T10:27:55.092Z,37.00
2023-01-25T10:28:55.080Z,39.00
2023-01-25T10:29:55.062Z,38.70
2023-01-25T10:30:55.163Z,37.20
2023-01-25T10:31:55.100Z,37.00
2023-01-25T10:32:56.337Z,39.90
2023-01-25T10:33:55.022Z,37.50
2023-01-25T10:34:57.076Z,36.20
2023-01-25T10:35:54.999Z,38.90
2023-01-25T10:36:54.999Z,35.60
2023-01-25T10:37:54.993Z,36.70
2023-01-25T10:38:54.969Z,35.40
2023-01-25T10:39:54.955Z,36.40
2023-01-25T10:40:54.947Z,34.80
2023-01-25T10:41:54.947Z,37.50
2023-01-25T10:42:54.920Z,34.70
2023-01-25T10:43:54.920Z,35.70
2023-01-25T10:44:54.901Z,38.00
2023-01-25T10:45:54.897Z,37.50
2023-01-25T10:46:54.895Z,39.50
2023-01-25T10:47:54.883Z,37.20
2023-01-25T10:48:54.856Z,37.00
2023-01-25T10:49:54.863Z,38.80
2023-01-25T10:50:54.838Z,37.90
2023-01-25T10:51:54.848Z,38.50
2023-01-25T10:52:54.813Z,40.90
2023-01-25T10:53:54.815Z,39.20
2023-01-25T10:54:54.797Z,38.40
2023-01-25T10:55:54.784Z,40.70
2023-01-25T10:56:54.786Z,41.00
2023-01-25T10:57:54.772Z,42.50
2023-01-25T10:58:54.766Z,39.10
2023-01-25T10:59:54.741Z,44.00
2023-01-25T11:00:54.734Z,42.80
2023-01-25T11:01:54.807Z,45.00
2023-01-25T11:02:54.737Z,44.10
2023-01-25T11:03:54.698Z,43.40
2023-01-25T11:04:54.685Z,43.60
2023-01-25T11:05:54.692Z,45.70
2023-01-25T11:06:54.676Z,43.50
2023-01-25T11:07:54.655Z,42.50
2023-01-25T11:08:54.637Z,41.30
2023-01-25T11:09:54.646Z,45.30
2023-01-25T11:10:54.644Z,42.90
2023-01-25T11:11:54.631Z,42.50
2023-01-25T11:12:54.599Z,42.80
2023-01-25T11:13:54.591Z,43.20
2023-01-25T11:14:54.575Z,41.60
2023-01-25T11:15:54.659Z,42.20
2023-01-25T11:16:54.563Z,42.90
2023-01-25T11:17:54.548Z,45.20
2023-01-25T11:18:54.536Z,44.80
2023-01-25T11:19:54.528Z,41.50
2023-01-25T11:20:54.510Z,42.30
2023-01-25T11:21:54.516Z,44.10
2023-01-25T11:22:54.533Z,44.80
2023-01-25T11:23:54.548Z,45.20
2023-01-25T11:24:54.469Z,40.30
2023-01-25T11:25:54.466Z,42.30
2023-01-25T11:26:54.455Z,40.20
2023-01-25T11:27:54.441Z,46.20
2023-01-25T11:28:54.421Z,44.00
2023-01-25T11:29:54.414Z,43.60
2023-01-25T11:30:54.512Z,43.30
2023-01-25T11:31:54.537Z,42.90
2023-01-25T11:32:54.379Z,44.60
2023-01-25T11:33:54.372Z,42.60
2023-01-25T11:34:54.358Z,42.50
2023-01-25T11:35:54.357Z,46.80
2023-01-25T11:36:54.340Z,45.60
2023-01-25T11:37:54.368Z,46.70
2023-01-25T11:38:54.326Z,43.90
2023-01-25T11:39:54.567Z,44.10
2023-01-25T11:40:54.308Z,45.10
2023-01-25T11:41:54.304Z,43.20
2023-01-25T11:42:54.283Z,52.10
2023-01-25T11:43:54.265Z,46.90
2023-01-25T11:44:54.256Z,50.10
2023-01-25T11:45:54.290Z,46.00
2023-01-25T11:46:54.229Z,49.70
2023-01-25T11:47:54.238Z,48.40
2023-01-25T11:48:54.210Z,53.40
2023-01-25T11:49:54.212Z,47.50
2023-01-25T11:50:54.186Z,49.50
2023-01-25T11:51:54.951Z,48.00
2023-01-25T11:52:54.174Z,48.60
2023-01-25T11:53:54.158Z,48.70
2023-01-25T11:54:54.141Z,47.30
2023-01-25T11:55:54.138Z,52.90
2023-01-25T11:56:54.126Z,57.20
2023-01-25T11:57:54.160Z,53.90
2023-01-25T11:58:54.116Z,56.00
2023-01-25T11:59:54.098Z,54.40
2023-01-25T12:00:54.078Z,57.80
2023-01-25T12:01:54.073Z,52.70
2023-01-25T12:02:54.147Z,53.70
2023-01-25T12:03:54.148Z,52.10
2023-01-25T12:04:54.110Z,49.70
2023-01-25T12:05:54.025Z,51.70
2023-01-25T12:06:54.016Z,51.40
2023-01-25T12:07:54.015Z,56.40
2023-01-25T12:08:53.992Z,53.20
2023-01-25T12:09:53.995Z,55.30
2023-01-25T12:10:53.971Z,51.50
2023-01-25T12:11:53.965Z,58.10
2023-01-25T12:12:53.958Z,57.60
2023-01-25T12:13:53.961Z,55.40
2023-01-25T12:14:53.925Z,56.90
2023-01-25T12:15:53.948Z,59.60
2023-01-25T12:16:53.914Z,57.40
2023-01-25T12:17:53.947Z,57.20
2023-01-25T12:18:53.887Z,56.40
2023-01-25T12:19:53.876Z,58.20
2023-01-25T12:20:53.862Z,57.90
2023-01-25T12:21:53.890Z,60.60
2023-01-25T12:22:53.853Z,61.50
2023-01-25T12:23:53.881Z,62.60
2023-01-25T12:24:53.817Z,58.00
2023-01-25T12:25:53.814Z,63.20
2023-01-25T12:26:53.917Z,58.00
2023-01-25T12:27:53.846Z,58.00
2023-01-25T12:28:53.778Z,59.30
2023-01-25T12:29:53.771Z,55.30
2023-01-25T12:30:53.783Z,57.90
2023-01-25T12:31:53.775Z,57.30
2023-01-25T12:32:57.300Z,63.30
2023-01-25T12:33:53.733Z,57.40
2023-01-25T12:34:53.707Z,60.00
2023-01-25T12:35:53.703Z,63.80
2023-01-25T12:36:53.697Z,61.50
2023-01-25T12:37:53.698Z,60.60
2023-01-25T12:38:53.680Z,62.90
2023-01-25T12:39:53.667Z,70.80
2023-01-25T12:40:53.650Z,60.90
2023-01-25T12:41:53.643Z,63.50
2023-01-25T12:42:53.636Z,63.40
2023-01-25T12:43:53.614Z,62.60
2023-01-25T12:44:53.604Z,60.20
2023-01-25T12:45:53.593Z,62.90
2023-01-25T12:46:53.645Z,65.50
2023-01-25T12:47:53.583Z,62.30
2023-01-25T12:48:53.566Z,65.50
2023-01-25T12:49:53.568Z,65.00
2023-01-25T12:50:53.568Z,69.00
2023-01-25T12:51:53.542Z,59.90